createdAt,value
2018-03-01T00:02:10.089Z,76.41
2018-03-01T00:04:37.783Z,77.57
2018-03-01T00:07:05.434Z,78.29
2018-03-01T00:09:33.018Z,78.67
2018-03-01T00:12:00.585Z,77.67
2018-03-01T00:14:28.166Z,76.99
2018-03-01T00:16:55.734Z,76.83
2018-03-01T00:19:23.525Z,77.82
2018-03-01T00:21:51.120Z,76.91
2018-03-01T00:24:18.697Z,76.79
2018-03-01T00:26:46.477Z,76.34
2018-03-01T00:29:14.048Z,76.12
2018-03-01T00:31:41.626Z,77.50
2018-03-01T00:34:09.210Z,77.58
2018-03-01T00:36:36.790Z,77.83
2018-03-01T00:39:04.673Z,77.71
2018-03-01T00:41:32.261Z,77.98
2018-03-01T00:44:00.003Z,78.01
2018-03-01T00:46:27.823Z,78.12
2018-03-01T00:48:55.406Z,78.39
2018-03-01T00:51:23.157Z,78.29
2018-03-01T00:53:50.719Z,79.20
2018-03-01T00:56:18.494Z,78.52
2018-03-01T00:58:46.079Z,78.06
2018-03-01T01:01:13.662Z,78.21
2018-03-01T01:03:41.300Z,78.34
2018-03-01T01:06:08.870Z,79.44
2018-03-01T01:08:36.443Z,79.54
2018-03-01T01:11:04.036Z,78.64
2018-03-01T01:13:31.603Z,78.04
2018-03-01T01:15:59.258Z,79.16
2018-03-01T01:18:27.055Z,79.69
2018-03-01T01:20:54.643Z,79.95
2018-03-01T01:23:22.281Z,79.71
2018-03-01T01:25:50.108Z,79.49
2018-03-01T01:28:17.926Z,79.57
2018-03-01T01:30:45.514Z,78.52
2018-03-01T01:33:13.098Z,78.55
2018-03-01T01:35:40.670Z,78.90
2018-03-01T01:38:08.258Z,78.30
2018-03-01T01:40:36.017Z,78.51
2018-03-01T01:43:03.634Z,78.63
2018-03-01T01:45:31.318Z,77.82
2018-03-01T01:47:58.882Z,77.43
2018-03-01T01:50:26.558Z,77.25
2018-03-01T01:52:54.124Z,77.40
2018-03-01T01:55:21.708Z,77.87
2018-03-01T01:57:49.392Z,76.20
2018-03-01T02:00:17.054Z,76.29
2018-03-01T02:02:44.629Z,76.66
2018-03-01T02:05:12.194Z,76.63
2018-03-01T02:07:40.012Z,75.27
2018-03-01T02:10:07.660Z,73.41
2018-03-01T02:12:35.230Z,75.08
2018-03-01T02:15:02.814Z,75.59
2018-03-01T02:17:30.430Z,75.59
2018-03-01T02:19:58.204Z,75.98
2018-03-01T02:22:26.020Z,76.63
2018-03-01T02:24:53.610Z,78.00
2018-03-01T02:27:21.195Z,78.25
2018-03-01T02:29:48.975Z,78.76
2018-03-01T02:32:16.554Z,79.06
2018-03-01T02:34:44.413Z,78.86
2018-03-01T02:37:11.990Z,79.92
2018-03-01T02:39:39.849Z,78.46
2018-03-01T02:42:07.648Z,78.40
2018-03-01T02:44:35.364Z,78.42
2018-03-01T02:47:03.202Z,79.31
2018-03-01T02:49:30.771Z,80.25
2018-03-01T02:51:58.350Z,80.66
2018-03-01T02:54:26.156Z,80.01
2018-03-01T02:56:53.790Z,77.56
2018-03-01T02:59:21.475Z,76.17
2018-03-01T03:01:49.054Z,77.23
2018-03-01T03:04:16.746Z,77.18
2018-03-01T03:06:44.548Z,78.56
2018-03-01T03:09:12.107Z,79.37
2018-03-01T03:11:39.778Z,79.87
2018-03-01T03:14:07.391Z,77.38
2018-03-01T03:16:35.219Z,76.94
2018-03-01T03:19:03.040Z,75.43
2018-03-01T03:21:30.855Z,74.50
2018-03-01T03:23:58.575Z,74.77
2018-03-01T03:26:26.157Z,75.94
2018-03-01T03:28:53.871Z,76.54
2018-03-01T03:31:21.451Z,77.48
2018-03-01T03:33:49.228Z,79.21
2018-03-01T03:36:16.854Z,79.92
2018-03-01T03:38:44.429Z,80.13
2018-03-01T03:41:12.175Z,80.58
2018-03-01T03:43:39.760Z,80.36
2018-03-01T03:46:07.358Z,80.14
2018-03-01T03:48:35.154Z,78.94
2018-03-01T03:51:02.756Z,77.78
2018-03-01T03:53:30.387Z,76.21
2018-03-01T03:55:58.258Z,76.29
2018-03-01T03:58:25.843Z,76.06
2018-03-01T04:00:53.644Z,75.54
2018-03-01T04:03:21.199Z,75.64
2018-03-01T04:05:48.982Z,75.76
2018-03-01T04:08:16.800Z,76.35
2018-03-01T04:10:44.389Z,78.12
2018-03-01T04:13:11.990Z,78.47
2018-03-01T04:15:39.722Z,77.80
2018-03-01T04:18:07.471Z,78.28
2018-03-01T04:20:35.290Z,78.48
2018-03-01T04:23:02.878Z,78.27
2018-03-01T04:25:30.626Z,77.62
2018-03-01T04:27:58.444Z,75.93
2018-03-01T04:30:26.019Z,75.85
2018-03-01T04:32:53.770Z,76.39
2018-03-01T04:35:21.597Z,76.55
2018-03-01T04:37:49.188Z,77.04
2018-03-01T04:40:16.769Z,77.93
2018-03-01T04:42:44.520Z,77.29
2018-03-01T04:45:17.685Z,77.23
2018-03-01T04:47:45.316Z,77.79
2018-03-01T04:50:13.126Z,77.11
2018-03-01T04:52:40.712Z,77.31
2018-03-01T04:55:08.462Z,77.31
2018-03-01T04:57:36.055Z,77.41
2018-03-01T05:00:03.882Z,77.68
2018-03-01T05:02:31.466Z,77.74
2018-03-01T05:04:59.294Z,77.81
2018-03-01T05:07:26.874Z,77.42
2018-03-01T05:09:54.443Z,77.77
2018-03-01T05:12:22.150Z,77.57
2018-03-01T05:14:49.791Z,77.97
2018-03-01T05:17:17.365Z,77.39
2018-03-01T05:19:44.960Z,76.27
2018-03-01T05:22:12.534Z,75.02
2018-03-01T05:24:40.164Z,73.98
2018-03-01T05:27:07.750Z,72.80
2018-03-01T05:29:35.486Z,75.12
2018-03-01T05:32:03.122Z,75.58
2018-03-01T05:34:30.720Z,74.39
2018-03-01T05:36:58.291Z,73.63
2018-03-01T05:39:25.865Z,74.36
2018-03-01T05:41:53.451Z,73.93
2018-03-01T05:44:21.035Z,73.99
2018-03-01T05:46:48.670Z,73.83
2018-03-01T05:49:16.242Z,73.44
2018-03-01T05:51:43.814Z,72.84
2018-03-01T05:54:11.390Z,72.65
2018-03-01T05:56:38.958Z,71.10
2018-03-01T05:59:06.554Z,71.17
2018-03-01T06:01:34.141Z,71.32
2018-03-01T06:04:01.771Z,70.98
2018-03-01T06:06:29.342Z,70.12
2018-03-01T06:08:56.989Z,67.71
2018-03-01T06:11:24.572Z,61.50
2018-03-01T06:13:52.138Z,57.14
2018-03-01T06:16:19.710Z,53.33
2018-03-01T06:18:47.284Z,50.07
2018-03-01T06:21:14.866Z,47.15
2018-03-01T06:23:42.440Z,45.35
2018-03-01T06:26:10.096Z,43.55
2018-03-01T06:28:37.648Z,41.69
2018-03-01T06:31:05.449Z,39.17
2018-03-01T06:33:33.023Z,37.15
2018-03-01T06:36:00.597Z,34.94
2018-03-01T06:38:28.175Z,33.47
2018-03-01T06:40:55.750Z,32.62
2018-03-01T06:43:23.382Z,32.53
2018-03-01T06:45:50.974Z,31.80
2018-03-01T06:48:18.869Z,31.23
2018-03-01T06:50:46.451Z,30.38
2018-03-01T06:53:14.010Z,30.52
2018-03-01T06:55:41.620Z,29.53
2018-03-01T06:58:09.178Z,29.23
2018-03-01T07:00:36.863Z,28.63
2018-03-01T07:03:04.583Z,29.06
2018-03-01T07:05:32.189Z,29.44
2018-03-01T07:07:59.769Z,29.66
2018-03-01T07:10:27.327Z,28.87
2018-03-01T07:12:54.944Z,28.61
2018-03-01T07:15:22.542Z,28.56
2018-03-01T07:17:50.103Z,28.57
2018-03-01T07:20:17.674Z,28.07
2018-03-01T07:22:45.358Z,27.85
2018-03-01T07:25:12.916Z,28.26
2018-03-01T07:27:40.456Z,28.44
2018-03-01T07:30:08.000Z,28.89
2018-03-01T07:32:35.562Z,31.33
2018-03-01T07:35:03.160Z,29.05
2018-03-01T07:37:30.736Z,29.17
2018-03-01T07:39:58.366Z,28.28
2018-03-01T07:42:25.922Z,26.78
2018-03-01T07:44:53.583Z,25.80
2018-03-01T07:47:21.159Z,25.62
2018-03-01T07:49:48.717Z,25.88
2018-03-01T07:52:16.291Z,24.62
2018-03-01T07:54:43.866Z,24.43
2018-03-01T07:57:11.447Z,24.50
2018-03-01T07:59:39.001Z,25.95
2018-03-01T08:02:06.555Z,24.97
2018-03-01T08:04:34.136Z,25.02
2018-03-01T08:07:01.706Z,25.37
2018-03-01T08:09:29.467Z,24.41
2018-03-01T08:11:57.042Z,24.45
2018-03-01T08:14:24.616Z,24.53
2018-03-01T08:16:52.182Z,24.00
2018-03-01T08:19:19.828Z,24.07
2018-03-01T08:21:47.394Z,23.24
2018-03-01T08:24:15.174Z,23.26
2018-03-01T08:26:42.736Z,24.31
2018-03-01T08:29:10.490Z,25.14
2018-03-01T08:31:38.128Z,25.45
2018-03-01T08:34:05.947Z,23.49
2018-03-01T08:36:33.574Z,23.12
2018-03-01T08:39:01.200Z,24.67
2018-03-01T08:41:29.001Z,23.49
2018-03-01T08:43:56.821Z,23.40
2018-03-01T08:46:24.637Z,22.73
2018-03-01T08:48:52.209Z,22.57
2018-03-01T08:51:20.125Z,23.58
2018-03-01T08:53:47.694Z,24.04
2018-03-01T08:56:15.510Z,24.39
2018-03-01T08:58:43.210Z,24.23
2018-03-01T09:01:10.783Z,25.17
2018-03-01T09:03:38.342Z,24.34
2018-03-01T09:06:05.912Z,24.47
2018-03-01T09:08:33.479Z,23.86
2018-03-01T09:11:01.062Z,23.53
2018-03-01T09:13:28.720Z,22.33
2018-03-01T09:15:56.346Z,21.91
2018-03-01T09:18:24.071Z,23.26
2018-03-01T09:20:51.636Z,21.59
2018-03-01T09:23:19.207Z,21.62
2018-03-01T09:25:47.025Z,22.20
2018-03-01T09:28:14.632Z,20.91
2018-03-01T09:30:42.360Z,19.99
2018-03-01T09:33:10.179Z,19.46
2018-03-01T09:35:37.751Z,19.08
2018-03-01T09:38:05.338Z,19.56
2018-03-01T09:40:32.919Z,19.86
2018-03-01T09:43:00.482Z,19.07
2018-03-01T09:45:28.065Z,19.13
2018-03-01T09:47:55.626Z,18.66
2018-03-01T09:50:23.395Z,19.76
2018-03-01T09:52:50.966Z,18.95
2018-03-01T09:55:18.542Z,19.85
2018-03-01T09:57:46.359Z,18.75
2018-03-01T10:00:13.911Z,19.42
2018-03-01T10:02:41.505Z,21.17
2018-03-01T10:05:09.076Z,20.98
2018-03-01T10:07:36.678Z,19.30
2018-03-01T10:10:04.339Z,20.24
2018-03-01T10:12:31.967Z,20.60
2018-03-01T10:14:59.788Z,20.67
2018-03-01T10:17:27.604Z,20.78
2018-03-01T10:19:55.421Z,20.74
2018-03-01T10:22:22.991Z,20.55
2018-03-01T10:24:50.553Z,20.80
2018-03-01T10:27:18.374Z,22.28
2018-03-01T10:29:47.843Z,22.69
2018-03-01T10:32:15.619Z,22.77
2018-03-01T10:34:43.435Z,22.53
2018-03-01T10:37:11.014Z,22.38
2018-03-01T10:39:38.772Z,22.45
2018-03-01T10:42:06.591Z,24.02
2018-03-01T10:44:34.143Z,24.54
2018-03-01T10:47:02.030Z,26.14
2018-03-01T10:49:29.907Z,25.47
2018-03-01T10:51:57.477Z,26.23
2018-03-01T10:54:25.282Z,24.32
2018-03-01T10:56:52.852Z,23.51
2018-03-01T10:59:20.509Z,24.35
2018-03-01T11:01:51.947Z,24.11
2018-03-01T11:04:19.559Z,23.86
2018-03-01T11:06:48.062Z,23.34
2018-03-01T11:09:15.697Z,22.74
2018-03-01T11:11:43.320Z,22.51
2018-03-01T11:14:10.890Z,22.47
2018-03-01T11:16:38.556Z,21.20
2018-03-01T11:19:06.380Z,22.40
2018-03-01T11:21:34.394Z,22.45
2018-03-01T11:24:02.215Z,22.34
2018-03-01T11:26:30.035Z,22.03
2018-03-01T11:28:57.603Z,21.54
2018-03-01T11:31:26.013Z,22.65
2018-03-01T11:33:53.699Z,23.46
2018-03-01T11:36:21.260Z,23.34
2018-03-01T11:38:48.830Z,24.19
2018-03-01T11:41:16.646Z,24.44
2018-03-01T11:43:44.236Z,24.88
2018-03-01T11:46:11.951Z,25.36
2018-03-01T11:48:40.392Z,26.20
2018-03-01T11:51:08.083Z,25.69
2018-03-01T11:53:35.638Z,25.89
2018-03-01T11:56:03.462Z,26.86
2018-03-01T11:58:31.051Z,25.97
2018-03-01T12:00:58.688Z,25.97
2018-03-01T12:03:26.254Z,28.63
2018-03-01T12:05:54.128Z,27.04
2018-03-01T12:08:21.686Z,27.63
2018-03-01T12:10:49.254Z,26.62
2018-03-01T12:13:16.883Z,24.96
2018-03-01T12:15:44.699Z,27.27
2018-03-01T12:18:12.275Z,26.31
2018-03-01T12:20:40.006Z,25.54
2018-03-01T12:23:07.639Z,25.08
2018-03-01T12:25:35.211Z,24.07
2018-03-01T12:28:02.990Z,23.10
2018-03-01T12:30:30.594Z,22.61
2018-03-01T12:32:58.164Z,24.28
2018-03-01T12:35:25.775Z,24.34
2018-03-01T12:37:53.342Z,24.80
2018-03-01T12:40:21.181Z,24.96
2018-03-01T12:42:48.731Z,25.21
2018-03-01T12:45:16.615Z,26.49
2018-03-01T12:47:44.434Z,26.49
2018-03-01T12:50:12.040Z,25.63
2018-03-01T12:52:39.642Z,24.65
2018-03-01T12:55:07.287Z,25.24
2018-03-01T12:57:34.902Z,25.89
2018-03-01T13:00:02.516Z,26.33
2018-03-01T13:02:30.233Z,26.09
2018-03-01T13:04:58.062Z,25.96
2018-03-01T13:07:25.659Z,27.90
2018-03-01T13:09:53.456Z,27.93
2018-03-01T13:12:21.215Z,27.70
2018-03-01T13:14:48.826Z,28.59
2018-03-01T13:17:16.550Z,29.50
2018-03-01T13:19:44.202Z,28.75
2018-03-01T13:22:11.797Z,28.82
2018-03-01T13:24:39.605Z,29.80
2018-03-01T13:27:07.287Z,30.44
2018-03-01T13:29:34.895Z,30.98
2018-03-01T13:32:05.130Z,31.66
2018-03-01T13:37:38.249Z,33.47
2018-03-01T13:40:05.879Z,33.88
2018-03-01T13:42:36.084Z,34.21
2018-03-01T13:45:04.205Z,34.36
2018-03-01T13:47:46.706Z,35.95
2018-03-01T13:50:14.300Z,35.78
2018-03-01T13:52:42.109Z,36.56
2018-03-01T13:55:09.927Z,36.44
2018-03-01T13:57:37.645Z,36.94
2018-03-01T14:00:05.379Z,35.42
2018-03-01T14:02:33.183Z,36.60
2018-03-01T14:05:01.331Z,37.33
2018-03-01T14:07:34.450Z,38.06
2018-03-01T14:10:02.128Z,38.71
2018-03-01T14:12:29.986Z,39.60
2018-03-01T14:14:57.790Z,39.89
2018-03-01T14:17:25.613Z,39.09
2018-03-01T14:23:07.626Z,38.13
2018-03-01T14:25:36.146Z,38.46
2018-03-01T14:28:09.564Z,39.30
2018-03-01T14:30:37.247Z,38.51
2018-03-01T14:33:04.927Z,38.92
2018-03-01T14:35:32.494Z,36.26
2018-03-01T14:38:00.082Z,37.73
2018-03-01T14:40:27.665Z,38.09
2018-03-01T14:42:55.787Z,38.08
2018-03-01T14:45:23.780Z,38.16
2018-03-01T14:47:51.494Z,37.46
2018-03-01T14:50:19.213Z,37.93
2018-03-01T14:52:46.930Z,37.55
2018-03-01T14:55:14.775Z,37.55
2018-03-01T14:57:42.334Z,40.87
2018-03-01T15:00:09.910Z,41.73
2018-03-01T15:02:37.498Z,42.90
2018-03-01T15:05:05.071Z,43.20
2018-03-01T15:07:32.640Z,42.60
2018-03-01T15:10:00.199Z,44.50
2018-03-01T15:12:27.835Z,45.47
2018-03-01T15:14:55.412Z,44.53
2018-03-01T15:17:23.027Z,43.97
2018-03-01T15:19:50.612Z,45.07
2018-03-01T15:22:18.178Z,45.78
2018-03-01T15:24:45.992Z,46.43
2018-03-01T15:27:13.532Z,45.20
2018-03-01T15:29:41.271Z,45.53
2018-03-01T15:32:08.838Z,46.83
2018-03-01T15:34:36.403Z,46.70
2018-03-01T15:37:04.055Z,47.86
2018-03-01T15:39:31.663Z,47.72
2018-03-01T15:41:59.407Z,47.53
2018-03-01T15:44:26.974Z,48.03
2018-03-01T15:46:54.542Z,48.95
2018-03-01T15:49:22.118Z,49.08
2018-03-01T15:51:49.730Z,49.43
2018-03-01T15:54:17.292Z,49.31
2018-03-01T15:56:44.850Z,49.84
2018-03-01T15:59:12.424Z,50.29
2018-03-01T16:01:40.255Z,49.62
2018-03-01T16:04:08.070Z,48.92
2018-03-01T16:06:35.630Z,49.96
2018-03-01T16:09:03.510Z,51.81
2018-03-01T16:11:31.074Z,53.09
2018-03-01T16:13:58.631Z,52.48
2018-03-01T16:16:26.210Z,52.22
2018-03-01T16:18:53.767Z,52.83
2018-03-01T16:21:21.582Z,51.97
2018-03-01T16:23:49.298Z,55.29
2018-03-01T16:26:17.139Z,56.71
2018-03-01T16:28:44.955Z,55.81
2018-03-01T16:31:12.774Z,55.74
2018-03-01T16:33:40.345Z,55.84
2018-03-01T16:36:07.930Z,56.91
2018-03-01T16:38:35.729Z,58.94
2018-03-01T16:41:03.471Z,59.49
2018-03-01T16:43:31.057Z,59.27
2018-03-01T16:45:58.626Z,60.50
2018-03-01T16:48:26.238Z,60.46
2018-03-01T16:50:53.815Z,59.97
2018-03-01T16:53:21.398Z,59.82
2018-03-01T16:55:49.132Z,60.24
2018-03-01T16:58:16.712Z,61.17
2018-03-01T17:00:44.464Z,60.75
2018-03-01T17:03:12.046Z,62.08
2018-03-01T17:05:39.740Z,61.41
2018-03-01T17:08:07.332Z,60.65
2018-03-01T17:10:35.035Z,60.32
2018-03-01T17:13:02.671Z,60.72
2018-03-01T17:15:30.499Z,62.46
2018-03-01T17:17:58.094Z,61.43
2018-03-01T17:20:25.818Z,62.52
2018-03-01T17:22:53.461Z,63.23
2018-03-01T17:25:21.273Z,62.74
2018-03-01T17:27:48.851Z,63.45
2018-03-01T17:30:16.706Z,62.63
2018-03-01T17:32:44.278Z,64.29
2018-03-01T17:35:11.889Z,63.88
2018-03-01T17:37:39.478Z,64.19
2018-03-01T17:40:07.427Z,64.44
2018-03-01T17:42:35.014Z,63.69
2018-03-01T17:45:02.662Z,62.85
2018-03-01T17:47:30.395Z,63.26
2018-03-01T17:49:57.970Z,65.15
2018-03-01T17:52:25.561Z,65.45
2018-03-01T17:54:53.116Z,65.33
2018-03-01T17:57:20.912Z,64.69
2018-03-01T17:59:48.526Z,64.42
2018-03-01T18:02:16.347Z,63.37
2018-03-01T18:04:43.925Z,62.97
2018-03-01T18:07:11.506Z,62.78
2018-03-01T18:09:39.095Z,63.84
2018-03-01T18:12:06.913Z,65.00
2018-03-01T18:14:34.555Z,66.77
2018-03-01T18:17:02.139Z,66.07
2018-03-01T18:19:29.780Z,66.29
2018-03-01T18:21:57.403Z,65.58
2018-03-01T18:24:24.977Z,66.27
2018-03-01T18:26:52.610Z,68.22
2018-03-01T18:29:20.186Z,66.28
2018-03-01T18:31:47.956Z,64.02
2018-03-01T18:34:15.542Z,63.33
2018-03-01T18:36:43.394Z,64.71
2018-03-01T18:39:10.959Z,64.84
2018-03-01T18:41:38.619Z,63.62
2018-03-01T18:44:06.198Z,63.07
2018-03-01T18:46:33.965Z,63.30
2018-03-01T18:49:01.784Z,64.60
2018-03-01T18:51:30.207Z,64.97
2018-03-01T18:53:58.027Z,65.06
2018-03-01T18:56:25.606Z,66.05
2018-03-01T18:58:53.243Z,66.08
2018-03-01T19:01:20.827Z,65.45
2018-03-01T19:03:48.407Z,65.11
2018-03-01T19:06:16.212Z,66.63
2018-03-01T19:08:43.803Z,67.49
2018-03-01T19:11:11.400Z,67.21
2018-03-01T19:13:38.981Z,63.12
2018-03-01T19:16:06.848Z,63.61
2018-03-01T19:18:34.513Z,65.41
2018-03-01T19:21:02.345Z,66.19
2018-03-01T19:23:29.942Z,64.60
2018-03-01T19:25:57.541Z,66.36
2018-03-01T19:28:25.134Z,65.88
2018-03-01T19:30:52.714Z,64.24
2018-03-01T19:33:20.310Z,61.19
2018-03-01T19:35:47.890Z,60.31
2018-03-01T19:38:15.899Z,60.16
2018-03-01T19:40:43.547Z,59.60
2018-03-01T19:43:11.170Z,59.91
2018-03-01T19:45:38.762Z,61.58
2018-03-01T19:48:06.334Z,62.85
2018-03-01T19:50:33.918Z,63.04
2018-03-01T19:53:01.755Z,63.27
2018-03-01T19:55:29.397Z,63.21
2018-03-01T19:57:57.192Z,62.58
2018-03-01T20:00:25.011Z,65.29
2018-03-01T20:02:52.590Z,64.75
2018-03-01T20:05:20.154Z,65.09
2018-03-01T20:07:47.740Z,65.26
2018-03-01T20:10:15.452Z,66.85
2018-03-01T20:12:43.093Z,66.20
2018-03-01T20:15:10.709Z,65.54
2018-03-01T20:17:38.302Z,64.87
2018-03-01T20:20:06.053Z,63.14
2018-03-01T20:22:33.628Z,67.00
2018-03-01T20:25:01.223Z,67.90
2018-03-01T20:27:28.799Z,67.82
2018-03-01T20:29:56.385Z,68.66
2018-03-01T20:32:24.144Z,67.80
2018-03-01T20:34:51.788Z,65.37
2018-03-01T20:37:19.368Z,60.15
2018-03-01T20:39:46.939Z,66.12
2018-03-01T20:42:14.719Z,66.58
2018-03-01T20:44:42.299Z,67.13
2018-03-01T20:47:09.892Z,68.00
2018-03-01T20:49:37.637Z,69.00
2018-03-01T20:52:05.294Z,68.11
2018-03-01T20:54:32.884Z,69.15
2018-03-01T20:57:00.466Z,68.32
2018-03-01T20:59:28.058Z,62.92
2018-03-01T21:01:55.857Z,63.62
2018-03-01T21:04:23.463Z,62.21
2018-03-01T21:06:51.034Z,60.64
2018-03-01T21:09:18.912Z,61.23
2018-03-01T21:11:46.743Z,62.41
2018-03-01T21:14:14.310Z,63.74
2018-03-01T21:16:41.879Z,65.16
2018-03-01T21:19:09.449Z,63.94
2018-03-01T21:21:37.034Z,65.34
2018-03-01T21:24:04.611Z,66.31
2018-03-01T21:26:32.227Z,66.33
2018-03-01T21:28:59.846Z,66.53
2018-03-01T21:31:27.510Z,67.68
2018-03-01T21:33:55.076Z,68.22
2018-03-01T21:36:22.658Z,67.75
2018-03-01T21:38:50.238Z,68.24
2018-03-01T21:41:18.620Z,66.94
2018-03-01T21:43:46.314Z,67.44
2018-03-01T21:46:15.640Z,65.78
2018-03-01T21:48:43.493Z,65.65
2018-03-01T21:51:11.141Z,66.32
2018-03-01T21:53:38.903Z,68.36
2018-03-01T21:56:06.500Z,68.31
2018-03-01T21:58:34.086Z,68.69
2018-03-01T22:01:01.792Z,71.23
2018-03-01T22:03:29.603Z,69.83
2018-03-01T22:05:57.247Z,69.43
2018-03-01T22:08:24.830Z,70.79
2018-03-01T22:10:52.428Z,71.40
2018-03-01T22:13:20.154Z,69.84
2018-03-01T22:15:47.730Z,68.98
2018-03-01T22:18:15.488Z,69.87
2018-03-01T22:20:43.066Z,68.98
2018-03-01T22:23:10.846Z,70.32
2018-03-01T22:25:38.418Z,69.60
2018-03-01T22:28:06.073Z,69.34
2018-03-01T22:30:33.783Z,69.58
2018-03-01T22:33:01.350Z,70.03
2018-03-01T22:35:29.291Z,71.69
2018-03-01T22:37:56.946Z,73.22
2018-03-01T22:40:24.514Z,73.79
2018-03-01T22:42:52.128Z,74.77
2018-03-01T22:45:20.011Z,75.65
2018-03-01T22:47:47.617Z,75.98
2018-03-01T22:50:15.179Z,76.36
2018-03-01T22:52:42.762Z,77.73
2018-03-01T22:55:10.346Z,78.87
2018-03-01T22:57:38.070Z,79.72
2018-03-01T23:00:05.722Z,80.13
2018-03-01T23:02:33.534Z,81.00
2018-03-01T23:05:01.088Z,81.27
2018-03-01T23:07:28.749Z,81.67
2018-03-01T23:09:56.588Z,81.69
2018-03-01T23:12:24.171Z,81.58
2018-03-01T23:14:51.764Z,81.80
2018-03-01T23:17:19.332Z,79.15
2018-03-01T23:19:46.970Z,81.07
2018-03-01T23:22:14.592Z,82.08
2018-03-01T23:24:42.188Z,82.22
2018-03-01T23:27:09.762Z,82.18
2018-03-01T23:29:37.319Z,82.32
2018-03-01T23:32:05.146Z,82.43
2018-03-01T23:34:32.736Z,82.02
2018-03-01T23:37:00.309Z,81.16
2018-03-01T23:39:27.906Z,79.63
2018-03-01T23:41:55.614Z,80.38
2018-03-01T23:44:23.441Z,81.97
2018-03-01T23:46:51.011Z,82.28
2018-03-01T23:49:18.586Z,82.50
2018-03-01T23:51:46.150Z,82.24
2018-03-01T23:54:13.783Z,80.69
2018-03-01T23:56:41.507Z,79.89
2018-03-01T23:59:09.147Z,79.46
